createdAt,value
2018-03-01T00:00:06.056Z,0
2018-03-01T00:01:05.789Z,0
2018-03-01T00:01:51.141Z,0
2018-03-01T00:02:51.161Z,0
2018-03-01T00:04:20.730Z,0
2018-03-01T00:04:51.438Z,0
2018-03-01T00:06:06.081Z,0
2018-03-01T00:06:51.459Z,0
2018-03-01T00:07:51.446Z,0
2018-03-01T00:08:51.464Z,0
2018-03-01T00:09:51.461Z,0
2018-03-01T00:11:05.872Z,0
2018-03-01T00:12:06.134Z,0
2018-03-01T00:12:51.495Z,0
2018-03-01T00:13:51.498Z,0
2018-03-01T00:14:51.495Z,0
2018-03-01T00:16:05.909Z,0
2018-03-01T00:16:51.529Z,0
2018-03-01T00:17:51.533Z,0
2018-03-01T00:20:51.573Z,0
2018-03-01T00:22:51.569Z,0
2018-03-01T00:23:51.572Z,0
2018-03-01T00:24:51.330Z,0
2018-03-01T00:25:51.346Z,0
2018-03-01T00:26:51.345Z,0
2018-03-01T00:27:51.591Z,0
2018-03-01T00:29:51.345Z,0
2018-03-01T00:30:51.632Z,0
2018-03-01T00:31:51.367Z,0
2018-03-01T00:33:51.640Z,0
2018-03-01T00:34:51.644Z,0
2018-03-01T00:36:20.971Z,0
2018-03-01T00:37:51.686Z,0
2018-03-01T00:38:51.425Z,0
2018-03-01T00:39:51.698Z,0
2018-03-01T00:41:06.108Z,0
2018-03-01T00:41:51.450Z,0
2018-03-01T00:43:06.370Z,0
2018-03-01T00:44:06.372Z,0
2018-03-01T00:44:51.739Z,0
2018-03-01T00:45:51.227Z,0
2018-03-01T00:46:51.491Z,0
2018-03-01T00:49:51.243Z,0
2018-03-01T00:50:51.776Z,0
2018-03-01T00:52:06.450Z,0
2018-03-01T00:52:51.797Z,0
2018-03-01T00:54:06.204Z,0
2018-03-01T00:54:51.801Z,0
2018-03-01T00:55:51.300Z,0
2018-03-01T00:56:51.569Z,0
2018-03-01T00:57:51.572Z,0
2018-03-01T00:58:51.848Z,0
2018-03-01T00:59:51.839Z,0
2018-03-01T01:00:51.863Z,0
2018-03-01T01:01:51.610Z,0
2018-03-01T01:03:06.523Z,0
2018-03-01T01:03:51.884Z,0
2018-03-01T01:04:51.886Z,0
2018-03-01T01:05:51.376Z,0
2018-03-01T01:07:06.554Z,0
2018-03-01T01:07:51.902Z,0
2018-03-01T01:08:51.920Z,0
2018-03-01T01:09:51.956Z,0
2018-03-01T01:10:51.933Z,0
2018-03-01T01:11:51.941Z,0
2018-03-01T01:12:51.960Z,0
2018-03-01T01:13:51.693Z,0
2018-03-01T01:14:51.964Z,0
2018-03-01T01:15:51.974Z,0
2018-03-01T01:16:51.990Z,0
2018-03-01T01:17:51.995Z,0
2018-03-01T01:18:52.066Z,0
2018-03-01T01:19:52.027Z,0
2018-03-01T01:22:06.687Z,0
2018-03-01T01:22:51.782Z,0
2018-03-01T01:23:52.033Z,0
2018-03-01T01:24:52.148Z,0
2018-03-01T01:26:06.726Z,0
2018-03-01T01:26:52.063Z,0
2018-03-01T01:27:52.089Z,0
2018-03-01T01:28:51.843Z,0
2018-03-01T01:29:52.111Z,0
2018-03-01T01:30:52.117Z,0
2018-03-01T01:31:52.123Z,0
2018-03-01T01:33:06.513Z,0
2018-03-01T01:33:52.156Z,0
2018-03-01T01:35:06.548Z,0
2018-03-01T01:36:06.796Z,0
2018-03-01T01:37:06.558Z,0
2018-03-01T01:37:52.158Z,0
2018-03-01T01:39:52.181Z,0
2018-03-01T01:41:06.570Z,0
2018-03-01T01:41:52.177Z,0
2018-03-01T01:43:52.206Z,0
2018-03-01T01:44:51.954Z,0
2018-03-01T01:46:52.233Z,0
2018-03-01T01:47:52.248Z,0
2018-03-01T01:48:52.237Z,0
2018-03-01T01:50:06.906Z,0
2018-03-01T01:50:52.249Z,0
2018-03-01T01:52:06.665Z,0
2018-03-01T01:52:52.018Z,0
2018-03-01T01:54:06.678Z,0
2018-03-01T01:55:06.685Z,0
2018-03-01T01:55:52.374Z,0
2018-03-01T01:56:52.324Z,0
2018-03-01T01:57:52.313Z,0
2018-03-01T01:58:52.325Z,0
2018-03-01T01:59:52.431Z,0
2018-03-01T02:02:06.739Z,0
2018-03-01T02:02:52.360Z,0
2018-03-01T02:04:06.758Z,0
2018-03-01T02:04:52.424Z,0
2018-03-01T02:05:52.396Z,0
2018-03-01T02:06:52.396Z,0
2018-03-01T02:07:52.499Z,0
2018-03-01T02:08:52.396Z,0
2018-03-01T02:09:52.419Z,0
2018-03-01T02:12:07.091Z,0
2018-03-01T02:12:52.428Z,0
2018-03-01T02:14:06.837Z,0
2018-03-01T02:14:52.467Z,0
2018-03-01T02:16:06.846Z,0
2018-03-01T02:16:52.471Z,0
2018-03-01T02:18:06.871Z,0
2018-03-01T02:18:52.490Z,0
2018-03-01T02:19:52.226Z,0
2018-03-01T02:20:51.971Z,0
2018-03-01T02:21:52.271Z,0
2018-03-01T02:22:52.517Z,0
2018-03-01T02:23:52.518Z,0
2018-03-01T02:24:52.531Z,0
2018-03-01T02:25:52.526Z,0
2018-03-01T02:27:52.550Z,0
2018-03-01T02:28:52.553Z,0
2018-03-01T02:29:52.571Z,0
2018-03-01T02:30:52.576Z,0
2018-03-01T02:31:52.323Z,0
2018-03-01T02:33:06.736Z,0
2018-03-01T02:33:52.350Z,0
2018-03-01T02:35:07.026Z,0
2018-03-01T02:35:52.346Z,0
2018-03-01T02:36:52.373Z,0
2018-03-01T02:37:52.619Z,0
2018-03-01T02:39:52.647Z,0
2018-03-01T02:40:52.646Z,0
2018-03-01T02:42:07.072Z,0
2018-03-01T02:43:07.348Z,0
2018-03-01T02:43:52.672Z,0
2018-03-01T02:45:07.067Z,0
2018-03-01T02:46:07.082Z,0
2018-03-01T02:46:52.699Z,0
2018-03-01T02:47:52.698Z,0
2018-03-01T02:48:52.450Z,0
2018-03-01T02:49:52.741Z,0
2018-03-01T02:51:07.396Z,0
2018-03-01T02:51:52.729Z,0
2018-03-01T02:52:52.470Z,0
2018-03-01T02:53:52.768Z,0
2018-03-01T02:54:52.511Z,0
2018-03-01T02:55:52.621Z,0
2018-03-01T02:56:52.767Z,0
2018-03-01T02:57:52.524Z,0
2018-03-01T02:59:52.539Z,0
2018-03-01T03:00:52.551Z,0
2018-03-01T03:02:07.452Z,0
2018-03-01T03:02:52.818Z,0
2018-03-01T03:04:07.490Z,0
2018-03-01T03:04:52.821Z,0
2018-03-01T03:05:52.825Z,0
2018-03-01T03:06:52.870Z,0
2018-03-01T03:07:52.587Z,0
2018-03-01T03:09:07.519Z,0
2018-03-01T03:09:52.871Z,0
2018-03-01T03:10:52.885Z,0
2018-03-01T03:11:52.619Z,0
2018-03-01T03:12:52.914Z,0
2018-03-01T03:14:22.210Z,0
2018-03-01T03:14:52.651Z,0
2018-03-01T03:15:52.652Z,0
2018-03-01T03:16:52.921Z,0
2018-03-01T03:17:52.937Z,0
2018-03-01T03:18:52.932Z,0
2018-03-01T03:19:52.955Z,0
2018-03-01T03:21:07.708Z,0
2018-03-01T03:21:52.962Z,0
2018-03-01T03:22:52.727Z,0
2018-03-01T03:23:52.981Z,0
2018-03-01T03:24:52.995Z,0
2018-03-01T03:26:53.007Z,0
2018-03-01T03:27:53.007Z,0
2018-03-01T03:30:07.166Z,0
2018-03-01T03:30:52.777Z,0
2018-03-01T03:31:53.048Z,0
2018-03-01T03:32:52.797Z,0
2018-03-01T03:33:53.068Z,0
2018-03-01T03:34:53.044Z,0
2018-03-01T03:36:07.723Z,0
2018-03-01T03:37:52.836Z,0
2018-03-01T03:38:53.102Z,0
2018-03-01T03:39:53.106Z,0
2018-03-01T03:40:53.109Z,0
2018-03-01T03:41:52.855Z,0
2018-03-01T03:42:52.865Z,0
2018-03-01T03:43:53.118Z,0
2018-03-01T03:44:53.138Z,0
2018-03-01T03:46:07.551Z,0
2018-03-01T03:47:07.797Z,0
2018-03-01T03:47:53.164Z,0
2018-03-01T03:48:53.179Z,0
2018-03-01T03:49:52.640Z,0
2018-03-01T03:50:53.230Z,0
2018-03-01T03:52:07.833Z,0
2018-03-01T03:52:53.183Z,0
2018-03-01T03:54:07.858Z,0
2018-03-01T03:54:53.220Z,0
2018-03-01T03:57:07.621Z,0
2018-03-01T03:57:53.230Z,0
2018-03-01T03:58:53.267Z,0
2018-03-01T03:59:52.991Z,0
2018-03-01T04:01:07.660Z,0
2018-03-01T04:02:07.686Z,0
2018-03-01T04:02:53.269Z,0
2018-03-01T04:03:52.774Z,0
2018-03-01T04:04:53.279Z,0
2018-03-01T04:05:53.308Z,0
2018-03-01T04:06:53.042Z,0
2018-03-01T04:07:52.908Z,0
2018-03-01T04:08:53.062Z,0
2018-03-01T04:09:53.078Z,0
2018-03-01T04:10:53.340Z,0
2018-03-01T04:13:07.734Z,0
2018-03-01T04:14:08.049Z,0
2018-03-01T04:14:53.360Z,0
2018-03-01T04:15:53.116Z,0
2018-03-01T04:17:08.027Z,0
2018-03-01T04:17:53.115Z,0
2018-03-01T04:18:53.124Z,0
2018-03-01T04:19:53.124Z,0
2018-03-01T04:20:53.251Z,0
2018-03-01T04:21:53.405Z,0
2018-03-01T04:23:07.804Z,0
2018-03-01T04:24:53.445Z,0
2018-03-01T04:25:53.452Z,0
2018-03-01T04:27:22.496Z,0
2018-03-01T04:27:53.449Z,0
2018-03-01T04:28:53.468Z,0
2018-03-01T04:30:08.134Z,0
2018-03-01T04:31:53.490Z,0
2018-03-01T04:32:53.495Z,0
2018-03-01T04:34:08.170Z,0
2018-03-01T04:34:53.250Z,0
2018-03-01T04:36:53.276Z,0
2018-03-01T04:38:53.555Z,0
2018-03-01T04:39:53.560Z,0
2018-03-01T04:41:08.229Z,0
2018-03-01T04:41:53.561Z,0
2018-03-01T04:42:53.584Z,0
2018-03-01T04:44:53.596Z,0
2018-03-01T04:45:53.580Z,0
2018-03-01T04:47:08.014Z,0
2018-03-01T04:47:53.366Z,0
2018-03-01T04:49:08.280Z,0
2018-03-01T04:49:53.609Z,0
2018-03-01T04:51:08.294Z,0
2018-03-01T04:51:53.387Z,0
2018-03-01T04:52:53.653Z,0
2018-03-01T04:54:07.793Z,0
2018-03-01T04:55:08.054Z,0
2018-03-01T04:56:08.150Z,0
2018-03-01T04:56:53.673Z,0
2018-03-01T04:57:53.676Z,0
2018-03-01T04:58:53.185Z,0
2018-03-01T05:00:08.348Z,0
2018-03-01T05:00:53.451Z,0
2018-03-01T05:01:53.734Z,0
2018-03-01T05:05:23.044Z,0
2018-03-01T05:06:53.503Z,0
2018-03-01T05:08:08.155Z,0
2018-03-01T05:08:53.235Z,0
2018-03-01T05:10:08.158Z,0
2018-03-01T05:10:53.789Z,0
2018-03-01T05:12:08.181Z,0
2018-03-01T05:12:53.813Z,0
2018-03-01T05:13:53.372Z,0
2018-03-01T05:14:53.804Z,0
2018-03-01T05:15:53.558Z,0
2018-03-01T05:16:53.812Z,0
2018-03-01T05:17:53.831Z,0
2018-03-01T05:18:53.847Z,0
2018-03-01T05:21:08.519Z,0
2018-03-01T05:22:53.868Z,0
2018-03-01T05:23:53.876Z,0
2018-03-01T05:24:53.883Z,0
2018-03-01T05:26:08.284Z,0
2018-03-01T05:26:54.063Z,0
2018-03-01T05:27:53.901Z,0
2018-03-01T05:28:53.913Z,0
2018-03-01T05:29:53.657Z,0
2018-03-01T05:30:53.937Z,0
2018-03-01T05:33:08.591Z,0
2018-03-01T05:33:53.705Z,0
2018-03-01T05:34:53.795Z,0
2018-03-01T05:37:08.102Z,0
2018-03-01T05:37:53.729Z,0
2018-03-01T05:38:53.970Z,0
2018-03-01T05:39:53.726Z,0
2018-03-01T05:41:08.396Z,0
2018-03-01T05:41:54.013Z,0
2018-03-01T05:42:54.007Z,0
2018-03-01T05:43:54.015Z,0
2018-03-01T05:44:54.029Z,0
2018-03-01T05:45:53.767Z,0
2018-03-01T05:46:53.529Z,5
2018-03-01T05:48:08.703Z,5
2018-03-01T05:48:54.067Z,5
2018-03-01T05:49:54.070Z,5
2018-03-01T05:50:54.098Z,5
2018-03-01T05:52:23.127Z,5
2018-03-01T05:52:53.900Z,5
2018-03-01T05:53:54.255Z,5
2018-03-01T05:55:08.746Z,10
2018-03-01T05:56:54.120Z,10
2018-03-01T05:57:54.132Z,10
2018-03-01T05:58:53.644Z,10
2018-03-01T05:59:53.887Z,10
2018-03-01T06:00:53.898Z,15
2018-03-01T06:01:53.898Z,15
2018-03-01T06:02:54.180Z,15
2018-03-01T06:03:54.170Z,15
2018-03-01T06:05:08.837Z,20
2018-03-01T06:05:54.206Z,20
2018-03-01T06:06:53.943Z,20
2018-03-01T06:07:53.931Z,20
2018-03-01T06:09:08.868Z,25
2018-03-01T06:09:54.253Z,25
2018-03-01T06:10:53.954Z,25
2018-03-01T06:11:54.245Z,25
2018-03-01T06:12:54.221Z,30
2018-03-01T06:13:53.975Z,30
2018-03-01T06:15:08.904Z,30
2018-03-01T06:15:54.305Z,30
2018-03-01T06:16:54.369Z,35
2018-03-01T06:17:53.749Z,35
2018-03-01T06:18:54.325Z,35
2018-03-01T06:20:08.677Z,35
2018-03-01T06:20:54.325Z,55
2018-03-01T06:21:54.291Z,105
2018-03-01T06:22:54.296Z,150
2018-03-01T06:24:23.629Z,200
2018-03-01T06:25:08.717Z,205
2018-03-01T06:26:08.989Z,210
2018-03-01T06:26:54.090Z,205
2018-03-01T06:27:54.346Z,200
2018-03-01T06:28:54.373Z,220
2018-03-01T06:29:54.380Z,255
2018-03-01T06:30:54.387Z,270
2018-03-01T06:32:09.044Z,285
2018-03-01T06:32:54.408Z,290
2018-03-01T06:33:54.402Z,310
2018-03-01T06:34:54.406Z,315
2018-03-01T06:35:54.163Z,330
2018-03-01T06:36:54.176Z,345
2018-03-01T06:37:54.187Z,355
2018-03-01T06:38:54.461Z,370
2018-03-01T06:40:08.875Z,375
2018-03-01T06:40:54.476Z,395
2018-03-01T06:41:54.476Z,395
2018-03-01T06:42:54.493Z,400
2018-03-01T06:43:54.504Z,410
2018-03-01T06:45:09.265Z,450
2018-03-01T06:45:54.255Z,475
2018-03-01T06:46:54.264Z,480
2018-03-01T06:47:54.275Z,520
2018-03-01T06:48:54.571Z,490
2018-03-01T06:50:54.311Z,470
2018-03-01T06:52:09.250Z,495
2018-03-01T06:52:54.608Z,515
2018-03-01T06:53:54.622Z,520
2018-03-01T06:55:23.954Z,575
2018-03-01T06:56:09.297Z,565
2018-03-01T06:56:54.660Z,575
2018-03-01T06:57:54.659Z,595
2018-03-01T06:58:54.442Z,590
2018-03-01T06:59:54.686Z,610
2018-03-01T07:00:54.742Z,655
2018-03-01T07:02:09.120Z,665
2018-03-01T07:02:54.741Z,645
2018-03-01T07:04:09.408Z,650
2018-03-01T07:04:54.760Z,645
2018-03-01T07:06:09.305Z,625
2018-03-01T07:07:09.450Z,635
2018-03-01T07:07:54.799Z,635
2018-03-01T07:08:54.565Z,590
2018-03-01T07:09:54.585Z,615
2018-03-01T07:11:09.558Z,615
2018-03-01T07:12:09.289Z,610
2018-03-01T07:12:54.901Z,620
2018-03-01T07:13:54.658Z,640
2018-03-01T07:15:09.300Z,675
2018-03-01T07:15:54.668Z,650
2018-03-01T07:16:54.736Z,640
2018-03-01T07:17:54.943Z,660
2018-03-01T07:18:54.712Z,680
2018-03-01T07:19:54.996Z,680
2018-03-01T07:20:54.997Z,680
2018-03-01T07:21:55.005Z,695
2018-03-01T07:22:54.765Z,705
2018-03-01T07:24:09.437Z,740
2018-03-01T07:24:55.063Z,740
2018-03-01T07:25:55.066Z,720
2018-03-01T07:27:09.774Z,505
2018-03-01T07:27:55.256Z,330
2018-03-01T07:28:55.124Z,230
2018-03-01T07:29:55.155Z,215
2018-03-01T07:31:09.564Z,210
2018-03-01T07:32:54.660Z,210
2018-03-01T07:33:55.228Z,215
2018-03-01T07:34:55.206Z,215
2018-03-01T07:36:09.890Z,210
2018-03-01T07:36:55.230Z,215
2018-03-01T07:37:55.011Z,215
2018-03-01T07:38:55.298Z,215
2018-03-01T07:40:10.000Z,215
2018-03-01T07:40:55.310Z,215
2018-03-01T07:41:55.307Z,215
2018-03-01T07:42:55.317Z,220
2018-03-01T07:43:55.343Z,215
2018-03-01T07:44:55.349Z,210
2018-03-01T07:45:55.384Z,215
2018-03-01T07:46:54.923Z,215
2018-03-01T07:47:55.164Z,215
2018-03-01T07:48:55.437Z,210
2018-03-01T07:49:55.450Z,215
2018-03-01T07:51:10.122Z,205
2018-03-01T07:51:55.480Z,215
2018-03-01T07:53:10.141Z,215
2018-03-01T07:53:55.486Z,215
2018-03-01T07:54:55.262Z,215
2018-03-01T07:56:10.193Z,205
2018-03-01T07:56:55.523Z,210
2018-03-01T07:57:55.049Z,205
2018-03-01T07:59:10.230Z,205
2018-03-01T07:59:55.598Z,205
2018-03-01T08:01:09.985Z,190
2018-03-01T08:01:55.360Z,195
2018-03-01T08:02:55.610Z,205
2018-03-01T08:05:10.104Z,220
2018-03-01T08:05:55.656Z,220
2018-03-01T08:06:55.673Z,225
2018-03-01T08:07:55.455Z,220
2018-03-01T08:08:55.485Z,220
2018-03-01T08:10:10.366Z,220
2018-03-01T08:10:55.722Z,220
2018-03-01T08:12:10.144Z,220
2018-03-01T08:13:24.810Z,220
2018-03-01T08:13:55.519Z,220
2018-03-01T08:15:10.290Z,215
2018-03-01T08:15:55.804Z,220
2018-03-01T08:16:55.609Z,220
2018-03-01T08:17:55.548Z,220
2018-03-01T08:19:10.239Z,225
2018-03-01T08:19:55.853Z,220
2018-03-01T08:20:55.600Z,215
2018-03-01T08:22:24.921Z,220
2018-03-01T08:23:10.286Z,215
2018-03-01T08:24:55.937Z,215
2018-03-01T08:26:10.572Z,215
2018-03-01T08:26:55.944Z,215
2018-03-01T08:27:55.963Z,215
2018-03-01T08:28:55.981Z,215
2018-03-01T08:29:55.969Z,215
2018-03-01T08:31:10.121Z,215
2018-03-01T08:31:55.740Z,215
2018-03-01T08:32:56.014Z,210
2018-03-01T08:33:55.771Z,210
2018-03-01T08:35:10.434Z,210
2018-03-01T08:35:56.066Z,210
2018-03-01T08:36:56.069Z,210
2018-03-01T08:37:55.820Z,205
2018-03-01T08:38:56.085Z,210
2018-03-01T08:40:10.755Z,205
2018-03-01T08:40:56.132Z,205
2018-03-01T08:41:56.130Z,205
2018-03-01T08:42:56.268Z,205
2018-03-01T08:43:56.151Z,205
2018-03-01T08:44:55.906Z,205
2018-03-01T08:45:55.925Z,205
2018-03-01T08:47:10.850Z,200
2018-03-01T08:48:10.596Z,205
2018-03-01T08:48:56.284Z,205
2018-03-01T08:49:56.219Z,205
2018-03-01T08:50:55.997Z,200
2018-03-01T08:51:55.728Z,200
2018-03-01T08:52:56.003Z,200
2018-03-01T08:55:10.673Z,200
2018-03-01T08:56:10.949Z,200
2018-03-01T08:56:56.310Z,200
2018-03-01T08:57:56.066Z,195
2018-03-01T08:58:56.336Z,200
2018-03-01T08:59:55.830Z,200
2018-03-01T09:00:56.369Z,195
2018-03-01T09:02:10.768Z,200
2018-03-01T09:04:10.530Z,200
2018-03-01T09:04:56.433Z,200
2018-03-01T09:05:56.422Z,200
2018-03-01T09:06:55.917Z,195
2018-03-01T09:08:11.105Z,200
2018-03-01T09:08:56.202Z,195
2018-03-01T09:10:11.118Z,195
2018-03-01T09:11:11.140Z,200
2018-03-01T09:11:56.505Z,195
2018-03-01T09:13:10.908Z,195
2018-03-01T09:13:56.710Z,195
2018-03-01T09:15:10.925Z,195
2018-03-01T09:16:10.953Z,195
2018-03-01T09:16:56.304Z,195
2018-03-01T09:18:11.222Z,195
2018-03-01T09:18:56.325Z,195
2018-03-01T09:19:56.335Z,190
2018-03-01T09:20:56.623Z,190
2018-03-01T09:22:11.263Z,195
2018-03-01T09:24:25.980Z,190
2018-03-01T09:24:56.709Z,190
2018-03-01T09:25:56.668Z,195
2018-03-01T09:26:56.425Z,190
2018-03-01T09:27:56.681Z,190
2018-03-01T09:28:56.707Z,190
2018-03-01T09:29:56.749Z,190
2018-03-01T09:30:56.474Z,190
2018-03-01T09:31:56.782Z,190
2018-03-01T09:32:56.743Z,185
2018-03-01T09:34:11.428Z,185
2018-03-01T09:34:56.834Z,185
2018-03-01T09:35:56.808Z,185
2018-03-01T09:36:56.809Z,185
2018-03-01T09:38:56.303Z,185
2018-03-01T09:39:56.837Z,180
2018-03-01T09:40:56.609Z,180
2018-03-01T09:41:56.893Z,175
2018-03-01T09:42:56.892Z,175
2018-03-01T09:44:11.294Z,175
2018-03-01T09:46:11.578Z,180
2018-03-01T09:46:56.931Z,175
2018-03-01T09:47:56.934Z,175
2018-03-01T09:49:27.982Z,175
2018-03-01T09:50:11.582Z,175
2018-03-01T09:50:56.928Z,175
2018-03-01T09:51:56.687Z,180
2018-03-01T09:52:56.699Z,180
2018-03-01T09:54:56.975Z,185
2018-03-01T09:56:57.000Z,180
2018-03-01T09:57:56.754Z,180
2018-03-01T09:58:57.033Z,180
2018-03-01T09:59:57.035Z,180
2018-03-01T10:00:57.049Z,180
2018-03-01T10:01:57.072Z,175
2018-03-01T10:02:57.174Z,175
2018-03-01T10:03:57.012Z,180
2018-03-01T10:04:57.101Z,180
2018-03-01T10:06:11.777Z,180
2018-03-01T10:06:56.871Z,175
2018-03-01T10:07:57.144Z,175
2018-03-01T10:08:56.891Z,175
2018-03-01T10:10:57.170Z,175
2018-03-01T10:11:56.931Z,175
2018-03-01T10:13:11.968Z,175
2018-03-01T10:13:57.208Z,175
2018-03-01T10:14:57.218Z,170
2018-03-01T10:15:57.233Z,165
2018-03-01T10:16:57.253Z,160
2018-03-01T10:18:11.923Z,150
2018-03-01T10:18:57.275Z,160
2018-03-01T10:19:57.037Z,165
2018-03-01T10:20:57.037Z,165
2018-03-01T10:22:11.971Z,160
2018-03-01T10:22:57.321Z,165
2018-03-01T10:23:57.071Z,170
2018-03-01T10:24:57.341Z,170
2018-03-01T10:25:56.848Z,165
2018-03-01T10:27:12.043Z,165
2018-03-01T10:28:57.397Z,150
2018-03-01T10:29:57.445Z,155
2018-03-01T10:31:26.821Z,150
2018-03-01T10:31:57.169Z,150
2018-03-01T10:32:57.442Z,150
2018-03-01T10:33:57.192Z,150
2018-03-01T10:34:57.467Z,155
2018-03-01T10:35:57.479Z,155
2018-03-01T10:37:12.013Z,160
2018-03-01T10:38:57.522Z,160
2018-03-01T10:39:57.522Z,155
2018-03-01T10:40:57.633Z,160
2018-03-01T10:41:57.288Z,155
2018-03-01T10:42:57.039Z,150
2018-03-01T10:43:57.580Z,150
2018-03-01T10:45:57.331Z,145
2018-03-01T10:46:57.597Z,145
2018-03-01T10:47:57.619Z,140
2018-03-01T10:48:57.617Z,140
2018-03-01T10:49:57.648Z,135
2018-03-01T10:51:12.309Z,135
2018-03-01T10:51:57.664Z,130
2018-03-01T10:52:57.409Z,130
2018-03-01T10:53:57.884Z,125
2018-03-01T10:54:57.426Z,125
2018-03-01T10:55:57.439Z,120
2018-03-01T10:56:57.450Z,120
2018-03-01T10:57:57.465Z,120
2018-03-01T10:58:57.733Z,120
2018-03-01T11:00:12.408Z,115
2018-03-01T11:00:57.491Z,115
2018-03-01T11:01:57.761Z,115
2018-03-01T11:02:57.824Z,110
2018-03-01T11:03:57.278Z,110
2018-03-01T11:05:12.206Z,110
2018-03-01T11:06:11.954Z,110
2018-03-01T11:06:57.555Z,110
2018-03-01T11:08:27.160Z,110
2018-03-01T11:09:12.506Z,110
2018-03-01T11:09:57.586Z,110
2018-03-01T11:10:57.598Z,110
2018-03-01T11:11:57.856Z,110
2018-03-01T11:12:57.621Z,110
2018-03-01T11:13:57.382Z,110
2018-03-01T11:14:57.390Z,110
2018-03-01T11:15:57.398Z,110
2018-03-01T11:16:57.925Z,110
2018-03-01T11:17:57.926Z,110
2018-03-01T11:18:57.940Z,110
2018-03-01T11:20:12.360Z,110
2018-03-01T11:21:12.624Z,110
2018-03-01T11:21:57.981Z,110
2018-03-01T11:22:57.724Z,110
2018-03-01T11:23:57.993Z,105
2018-03-01T11:25:12.152Z,105
2018-03-01T11:26:12.675Z,105
2018-03-01T11:27:12.431Z,110
2018-03-01T11:27:58.032Z,110
2018-03-01T11:28:57.794Z,110
2018-03-01T11:29:58.059Z,110
2018-03-01T11:30:58.061Z,110
2018-03-01T11:31:58.074Z,110
2018-03-01T11:32:58.083Z,110
2018-03-01T11:34:12.762Z,110
2018-03-01T11:34:58.196Z,110
2018-03-01T11:35:57.343Z,110
2018-03-01T11:36:58.123Z,110
2018-03-01T11:39:12.814Z,110
2018-03-01T11:39:57.902Z,110
2018-03-01T11:41:12.839Z,110
2018-03-01T11:42:12.840Z,110
2018-03-01T11:42:58.191Z,110
2018-03-01T11:43:57.943Z,110
2018-03-01T11:44:58.214Z,110
2018-03-01T11:45:57.966Z,115
2018-03-01T11:46:58.229Z,110
2018-03-01T11:47:58.240Z,110
2018-03-01T11:48:58.255Z,110
2018-03-01T11:50:12.673Z,110
2018-03-01T11:50:57.760Z,110
2018-03-01T11:52:58.031Z,110
2018-03-01T11:54:12.964Z,110
2018-03-01T11:54:58.321Z,110
2018-03-01T11:55:58.329Z,110
2018-03-01T11:57:12.998Z,110
2018-03-01T11:58:58.095Z,110
2018-03-01T11:59:58.115Z,110
2018-03-01T12:01:58.387Z,110
2018-03-01T12:02:58.402Z,110
2018-03-01T12:03:58.441Z,110
2018-03-01T12:04:58.420Z,110
2018-03-01T12:05:58.422Z,110
2018-03-01T12:06:58.432Z,110
2018-03-01T12:07:58.446Z,110
2018-03-01T12:09:12.862Z,110
2018-03-01T12:09:58.466Z,110
2018-03-01T12:10:58.233Z,110
2018-03-01T12:12:12.896Z,110
2018-03-01T12:12:58.245Z,110
2018-03-01T12:14:13.171Z,110
2018-03-01T12:14:58.011Z,110
2018-03-01T12:15:58.531Z,110
2018-03-01T12:16:58.277Z,110
2018-03-01T12:17:58.545Z,110
2018-03-01T12:18:58.303Z,110
2018-03-01T12:19:58.310Z,110
2018-03-01T12:20:58.586Z,110
2018-03-01T12:21:58.594Z,110
2018-03-01T12:22:58.600Z,110
2018-03-01T12:24:13.274Z,110
2018-03-01T12:24:58.369Z,110
2018-03-01T12:25:58.373Z,110
2018-03-01T12:27:13.315Z,110
2018-03-01T12:27:58.653Z,105
2018-03-01T12:28:58.663Z,110
2018-03-01T12:30:58.684Z,110
2018-03-01T12:31:58.802Z,110
2018-03-01T12:32:58.704Z,105
2018-03-01T12:33:58.710Z,105
2018-03-01T12:34:58.742Z,105
2018-03-01T12:35:58.222Z,110
2018-03-01T12:36:58.747Z,110
2018-03-01T12:37:58.497Z,110
2018-03-01T12:38:58.510Z,110
2018-03-01T12:39:58.782Z,110
2018-03-01T12:40:58.780Z,110
2018-03-01T12:41:58.538Z,115
2018-03-01T12:42:58.560Z,115
2018-03-01T12:44:13.225Z,115
2018-03-01T12:44:58.576Z,115
2018-03-01T12:46:58.601Z,115
2018-03-01T12:48:58.872Z,115
2018-03-01T12:49:58.893Z,115
2018-03-01T12:50:58.886Z,115
2018-03-01T12:51:58.129Z,115
2018-03-01T12:52:58.910Z,110
2018-03-01T12:53:58.916Z,110
2018-03-01T12:55:13.594Z,115
2018-03-01T12:55:58.940Z,115
2018-03-01T12:58:13.673Z,115
2018-03-01T12:58:58.713Z,115
2018-03-01T13:00:13.389Z,115
2018-03-01T13:00:58.741Z,110
2018-03-01T13:01:58.755Z,110
2018-03-01T13:02:59.013Z,110
2018-03-01T13:03:59.022Z,110
2018-03-01T13:04:58.778Z,110
2018-03-01T13:05:59.041Z,115
2018-03-01T13:07:13.719Z,110
2018-03-01T13:07:58.819Z,110
2018-03-01T13:09:13.739Z,115
2018-03-01T13:11:13.501Z,115
2018-03-01T13:11:59.115Z,115
2018-03-01T13:12:59.125Z,115
2018-03-01T13:13:59.124Z,110
2018-03-01T13:16:13.293Z,110
2018-03-01T13:16:59.176Z,110
2018-03-01T13:17:58.915Z,115
2018-03-01T13:18:59.192Z,110
2018-03-01T13:20:13.856Z,110
2018-03-01T13:20:59.312Z,110
2018-03-01T13:21:59.208Z,110
2018-03-01T13:23:13.884Z,110
2018-03-01T13:23:59.227Z,110
2018-03-01T13:24:59.234Z,110
2018-03-01T13:25:59.248Z,110
2018-03-01T13:26:59.250Z,110
2018-03-01T13:28:13.931Z,110
2018-03-01T13:28:59.012Z,110
2018-03-01T13:29:59.039Z,110
2018-03-01T13:30:59.295Z,110
2018-03-01T13:32:13.974Z,110
2018-03-01T13:32:59.322Z,110
2018-03-01T13:33:59.322Z,110
2018-03-01T13:34:59.340Z,110
2018-03-01T13:35:59.351Z,110
2018-03-01T13:36:59.182Z,110
2018-03-01T13:37:59.372Z,110
2018-03-01T13:38:59.383Z,110
2018-03-01T13:39:59.136Z,110
2018-03-01T13:40:59.147Z,110
2018-03-01T13:41:59.410Z,110
2018-03-01T13:42:59.421Z,110
2018-03-01T13:44:13.839Z,110
2018-03-01T13:44:59.452Z,110
2018-03-01T13:46:14.113Z,110
2018-03-01T13:47:14.126Z,110
2018-03-01T13:47:59.472Z,110
2018-03-01T13:48:59.482Z,110
2018-03-01T13:50:59.245Z,110
2018-03-01T13:51:59.513Z,110
2018-03-01T13:52:59.522Z,105
2018-03-01T13:54:14.210Z,110
2018-03-01T13:54:59.289Z,110
2018-03-01T13:55:59.559Z,110
2018-03-01T13:56:59.565Z,110
2018-03-01T13:57:59.629Z,110
2018-03-01T14:00:14.263Z,110
2018-03-01T14:00:59.608Z,110
2018-03-01T14:01:59.620Z,110
2018-03-01T14:03:13.779Z,110
2018-03-01T14:04:14.299Z,110
2018-03-01T14:04:59.657Z,110
2018-03-01T14:05:59.659Z,105
2018-03-01T14:07:59.416Z,105
2018-03-01T14:08:59.700Z,105
2018-03-01T14:09:59.453Z,105
2018-03-01T14:10:59.709Z,105
2018-03-01T14:12:59.735Z,105
2018-03-01T14:13:59.223Z,105
2018-03-01T14:14:59.488Z,105
2018-03-01T14:15:59.769Z,105
2018-03-01T14:16:59.512Z,105
2018-03-01T14:17:59.776Z,105
2018-03-01T14:19:14.456Z,105
2018-03-01T14:21:14.480Z,105
2018-03-01T14:21:59.818Z,105
2018-03-01T14:22:59.830Z,105
2018-03-01T14:24:14.512Z,100
2018-03-01T14:24:59.339Z,100
2018-03-01T14:25:59.876Z,100
2018-03-01T14:26:59.614Z,100
2018-03-01T14:28:14.293Z,100
2018-03-01T14:28:59.736Z,100
2018-03-01T14:29:59.901Z,100
2018-03-01T14:30:59.412Z,100
2018-03-01T14:31:59.432Z,100
2018-03-01T14:32:59.688Z,100
2018-03-01T14:34:00.050Z,100
2018-03-01T14:35:14.463Z,100
2018-03-01T14:36:14.635Z,100
2018-03-01T14:36:59.466Z,100
2018-03-01T14:37:59.996Z,100
2018-03-01T14:39:14.671Z,95
2018-03-01T14:39:59.998Z,95
2018-03-01T14:41:00.022Z,95
2018-03-01T14:41:59.771Z,95
2018-03-01T14:43:00.037Z,95
2018-03-01T14:43:59.793Z,95
2018-03-01T14:45:00.064Z,95
2018-03-01T14:46:00.066Z,95
2018-03-01T14:47:00.085Z,95
2018-03-01T14:48:00.087Z,95
2018-03-01T14:49:14.836Z,90
2018-03-01T14:50:00.119Z,90
2018-03-01T14:51:14.782Z,90
2018-03-01T14:52:00.231Z,90
2018-03-01T14:53:14.804Z,90
2018-03-01T14:54:00.151Z,95
2018-03-01T14:54:59.906Z,90
2018-03-01T14:56:00.174Z,90
2018-03-01T14:56:59.930Z,90
2018-03-01T14:58:00.200Z,90
2018-03-01T14:58:59.945Z,85
2018-03-01T15:00:00.211Z,85
2018-03-01T15:01:00.224Z,85
2018-03-01T15:02:00.032Z,85
2018-03-01T15:03:14.657Z,85
2018-03-01T15:04:00.255Z,85
2018-03-01T15:04:59.235Z,85
2018-03-01T15:06:00.269Z,85
2018-03-01T15:07:29.618Z,80
2018-03-01T15:08:14.957Z,80
2018-03-01T15:09:14.967Z,80
2018-03-01T15:09:59.800Z,80
2018-03-01T15:11:00.082Z,80
2018-03-01T15:12:15.006Z,75
2018-03-01T15:13:00.088Z,75
2018-03-01T15:14:00.100Z,75
2018-03-01T15:15:00.113Z,75